createdAt,value
2018-12-29T00:02:18.966Z,38.30
2018-12-29T00:04:46.009Z,38.75
2018-12-29T00:07:13.030Z,39.90
2018-12-29T00:09:40.085Z,41.68
2018-12-29T00:12:07.107Z,35.20
2018-12-29T00:14:34.160Z,45.08
2018-12-29T00:17:01.211Z,38.45
2018-12-29T00:19:28.285Z,40.10
2018-12-29T00:21:55.331Z,33.60
2018-12-29T00:24:22.360Z,30.72
2018-12-29T00:26:49.408Z,39.30
2018-12-29T00:29:16.443Z,32.20
2018-12-29T00:31:43.505Z,32.42
2018-12-29T00:34:10.581Z,32.15
2018-12-29T00:36:37.601Z,31.12
2018-12-29T00:39:05.346Z,28.52
2018-12-29T00:41:32.399Z,29.20
2018-12-29T00:43:59.463Z,26.40
2018-12-29T00:46:26.477Z,31.50
2018-12-29T00:48:53.502Z,24.92
2018-12-29T00:51:20.566Z,29.75
2018-12-29T00:53:47.589Z,25.27
2018-12-29T00:56:14.638Z,23.95
2018-12-29T00:58:41.671Z,25.25
2018-12-29T01:01:08.713Z,29.40
2018-12-29T01:03:35.777Z,22.02
2018-12-29T01:06:02.823Z,29.15
2018-12-29T01:08:29.868Z,25.00
2018-12-29T01:10:56.931Z,23.95
2018-12-29T01:13:23.966Z,27.65
2018-12-29T01:15:51.004Z,25.48
2018-12-29T01:18:18.032Z,28.85
2018-12-29T01:20:45.079Z,32.05
2018-12-29T01:23:12.507Z,24.67
2018-12-29T01:25:39.536Z,25.95
2018-12-29T01:28:06.574Z,24.43
2018-12-29T01:30:33.608Z,27.37
2018-12-29T01:33:00.722Z,23.85
2018-12-29T01:35:27.761Z,24.18
2018-12-29T01:37:54.786Z,30.10
2018-12-29T01:40:21.824Z,28.77
2018-12-29T01:42:48.933Z,27.50
2018-12-29T01:45:17.541Z,25.60
2018-12-29T01:47:44.834Z,29.67
2018-12-29T01:50:11.888Z,27.93
2018-12-29T01:52:38.936Z,20.20
2018-12-29T01:55:06.002Z,30.68
2018-12-29T01:57:33.027Z,28.32
2018-12-29T02:00:00.177Z,25.27
2018-12-29T02:02:27.236Z,25.20
2018-12-29T02:04:54.366Z,25.52
2018-12-29T02:07:21.405Z,23.42
2018-12-29T02:09:48.425Z,26.07
2018-12-29T02:12:15.468Z,30.55
2018-12-29T02:14:42.491Z,30.08
2018-12-29T02:17:09.540Z,32.93
2018-12-29T02:19:36.592Z,31.10
2018-12-29T02:22:03.631Z,28.73
2018-12-29T02:24:30.715Z,30.15
2018-12-29T02:26:57.838Z,26.62
2018-12-29T02:29:24.887Z,27.82
2018-12-29T02:31:51.892Z,30.48
2018-12-29T02:34:19.066Z,33.50
2018-12-29T02:36:46.114Z,27.37
2018-12-29T02:39:13.179Z,29.37
2018-12-29T02:41:40.221Z,28.87
2018-12-29T02:44:07.286Z,28.52
2018-12-29T02:46:34.308Z,34.45
2018-12-29T02:49:01.327Z,28.40
2018-12-29T02:51:28.395Z,35.05
2018-12-29T02:53:55.509Z,34.98
2018-12-29T02:56:22.569Z,28.23
2018-12-29T02:58:49.595Z,29.82
2018-12-29T03:01:16.663Z,29.02
2018-12-29T03:03:43.701Z,23.32
2018-12-29T03:06:10.763Z,26.20
2018-12-29T03:08:37.795Z,31.82
2018-12-29T03:11:04.849Z,27.65
2018-12-29T03:13:31.905Z,31.82
2018-12-29T03:15:58.935Z,29.20
2018-12-29T03:18:25.981Z,25.88
2018-12-29T03:20:53.043Z,31.35
2018-12-29T03:23:19.989Z,29.63
2018-12-29T03:25:47.061Z,31.77
2018-12-29T03:28:14.103Z,29.07
2018-12-29T03:30:41.140Z,31.00
2018-12-29T03:33:08.241Z,27.40
2018-12-29T03:35:35.276Z,26.62
2018-12-29T03:38:02.303Z,30.52
2018-12-29T03:40:29.372Z,32.70
2018-12-29T03:42:56.423Z,29.18
2018-12-29T03:45:23.465Z,34.63
2018-12-29T03:47:50.509Z,30.97
2018-12-29T03:50:17.577Z,33.67
2018-12-29T03:52:44.616Z,32.17
2018-12-29T03:55:11.689Z,32.60
2018-12-29T03:57:38.730Z,32.23
2018-12-29T04:00:06.058Z,33.38
2018-12-29T04:02:33.111Z,34.65
2018-12-29T04:05:00.201Z,34.25
2018-12-29T04:07:27.232Z,36.42
2018-12-29T04:09:54.970Z,41.08
2018-12-29T04:12:27.330Z,32.15
2018-12-29T04:14:54.362Z,42.50
2018-12-29T04:17:21.399Z,37.35
2018-12-29T04:19:48.454Z,41.42
2018-12-29T04:22:15.507Z,41.98
2018-12-29T04:24:42.536Z,45.10
2018-12-29T04:27:09.614Z,41.18
2018-12-29T04:29:36.651Z,38.30
2018-12-29T04:32:03.695Z,40.48
2018-12-29T04:34:30.764Z,38.83
2018-12-29T04:36:57.805Z,43.23
2018-12-29T04:39:24.876Z,39.27
2018-12-29T04:41:51.922Z,36.90
2018-12-29T04:44:18.982Z,40.88
2018-12-29T04:46:46.029Z,38.33
2018-12-29T04:49:13.096Z,36.38
2018-12-29T04:51:40.141Z,41.37
2018-12-29T04:54:07.199Z,31.23
2018-12-29T04:56:34.251Z,39.33
2018-12-29T04:59:01.298Z,34.10
2018-12-29T05:01:28.353Z,41.00
2018-12-29T05:03:55.383Z,44.83
2018-12-29T05:06:22.450Z,43.20
2018-12-29T05:08:49.486Z,48.55
2018-12-29T05:11:16.550Z,43.83
2018-12-29T05:13:43.596Z,44.88
2018-12-29T05:16:12.957Z,47.70
2018-12-29T05:18:39.568Z,55.17
2018-12-29T05:21:06.628Z,59.00
2018-12-29T05:23:33.654Z,75.72
2018-12-29T05:26:00.820Z,60.67
2018-12-29T05:28:27.860Z,59.63
2018-12-29T05:30:54.932Z,56.75
2018-12-29T05:33:21.972Z,57.40
2018-12-29T05:35:48.999Z,52.00
2018-12-29T05:38:16.049Z,61.58
2018-12-29T05:40:43.083Z,60.63
2018-12-29T05:43:10.151Z,65.00
2018-12-29T05:45:37.207Z,54.80
2018-12-29T05:48:04.273Z,53.30
2018-12-29T05:50:31.324Z,51.55
2018-12-29T05:52:58.372Z,60.52
2018-12-29T05:55:25.426Z,62.17
2018-12-29T05:57:52.568Z,62.75
2018-12-29T06:00:19.611Z,65.35
2018-12-29T06:02:46.645Z,55.35
2018-12-29T06:05:13.702Z,66.00
2018-12-29T06:07:40.737Z,53.00
2018-12-29T06:10:07.790Z,51.85
2018-12-29T06:12:34.816Z,60.88
2018-12-29T06:15:01.865Z,55.63
2018-12-29T06:17:28.922Z,58.33
2018-12-29T06:19:55.959Z,51.10
2018-12-29T06:22:23.019Z,60.78
2018-12-29T06:24:50.060Z,56.50
2018-12-29T06:27:17.109Z,49.53
2018-12-29T06:29:44.141Z,56.45
2018-12-29T06:32:11.155Z,62.23
2018-12-29T06:34:38.210Z,55.30
2018-12-29T06:37:05.249Z,56.10
2018-12-29T06:39:32.301Z,58.78
2018-12-29T06:41:59.325Z,64.70
2018-12-29T06:44:26.376Z,54.83
2018-12-29T06:46:53.439Z,62.17
2018-12-29T06:49:20.504Z,74.05
2018-12-29T06:51:47.543Z,64.82
2018-12-29T06:54:14.583Z,65.35
2018-12-29T06:56:41.635Z,65.95
2018-12-29T06:59:08.666Z,74.87
2018-12-29T07:01:35.698Z,64.35
2018-12-29T07:04:02.745Z,68.17
2018-12-29T07:06:29.774Z,67.08
2018-12-29T07:08:56.820Z,76.67
2018-12-29T07:11:23.858Z,82.65
2018-12-29T07:13:50.913Z,69.40
2018-12-29T07:16:17.927Z,84.65
2018-12-29T07:18:45.025Z,70.78
2018-12-29T07:21:12.075Z,88.17
2018-12-29T07:23:39.113Z,76.30
2018-12-29T07:26:06.172Z,91.72
2018-12-29T07:28:33.205Z,81.22
2018-12-29T07:31:00.258Z,86.02
2018-12-29T07:33:27.384Z,74.12
2018-12-29T07:35:54.450Z,61.77
2018-12-29T07:38:21.502Z,63.15
2018-12-29T07:40:48.544Z,61.80
2018-12-29T07:43:15.574Z,63.25
2018-12-29T07:45:42.618Z,68.87
2018-12-29T07:48:09.669Z,66.62
2018-12-29T07:50:36.707Z,60.05
2018-12-29T07:53:03.776Z,70.60
2018-12-29T07:55:30.804Z,67.85
2018-12-29T07:57:57.900Z,69.90
2018-12-29T08:00:24.935Z,78.47
2018-12-29T08:02:51.998Z,81.65
2018-12-29T08:05:19.074Z,80.12
2018-12-29T08:07:46.131Z,66.67
2018-12-29T08:10:13.207Z,68.85
2018-12-29T08:12:40.228Z,76.37
2018-12-29T08:15:07.299Z,138.45
2018-12-29T08:17:34.375Z,288.00
2018-12-29T08:20:01.424Z,86.90
2018-12-29T08:22:28.590Z,168.22
2018-12-29T08:24:55.643Z,102.80
2018-12-29T08:27:22.670Z,112.25
2018-12-29T08:29:49.716Z,129.30
2018-12-29T08:32:16.789Z,114.03
2018-12-29T08:34:43.841Z,92.30
2018-12-29T08:37:10.911Z,86.22
2018-12-29T08:39:37.929Z,87.67
2018-12-29T08:42:05.021Z,83.58
2018-12-29T08:44:32.068Z,90.75
2018-12-29T08:47:04.437Z,84.10
2018-12-29T08:49:28.076Z,87.72
2018-12-29T08:51:55.106Z,88.75
2018-12-29T08:54:22.174Z,85.62
2018-12-29T08:56:49.196Z,89.58
2018-12-29T08:59:16.223Z,101.00
